sensor_id;sensor_type;location;lat;lon;timestamp;temperature;humidity
34135;DHT22;20410;55.578;12.968;2023-11-21T00:02:13;5.00;1.00
34135;DHT22;20410;55.578;12.968;2023-11-21T00:04:39;4.90;1.00
34135;DHT22;20410;55.578;12.968;2023-11-21T00:07:05;4.90;1.00
34135;DHT22;20410;55.578;12.968;2023-11-21T00:09:31;4.90;1.00
34135;DHT22;20410;55.578;12.968;2023-11-21T00:11:57;4.90;1.00
34135;DHT22;20410;55.578;12.968;2023-11-21T00:14:24;4.90;1.00
34135;DHT22;20410;55.578;12.968;2023-11-21T00:16:50;4.80;1.00
34135;DHT22;20410;55.578;12.968;2023-11-21T00:19:16;4.90;1.00
34135;DHT22;20410;55.578;12.968;2023-11-21T00:21:42;4.80;1.00
34135;DHT22;20410;55.578;12.968;2023-11-21T00:24:09;4.80;1.00
34135;DHT22;20410;55.578;12.968;2023-11-21T00:26:35;4.80;1.00
34135;DHT22;20410;55.578;12.968;2023-11-21T00:29:03;4.80;1.00
34135;DHT22;20410;55.578;12.968;2023-11-21T00:31:29;4.70;1.00
34135;DHT22;20410;55.578;12.968;2023-11-21T00:33:56;4.70;1.00
34135;DHT22;20410;55.578;12.968;2023-11-21T00:36:21;4.70;1.00
34135;DHT22;20410;55.578;12.968;2023-11-21T00:38:47;4.60;1.00
34135;DHT22;20410;55.578;12.968;2023-11-21T00:41:13;4.50;1.00
34135;DHT22;20410;55.578;12.968;2023-11-21T00:43:39;4.50;1.00
34135;DHT22;20410;55.578;12.968;2023-11-21T00:46:05;4.50;1.00
34135;DHT22;20410;55.578;12.968;2023-11-21T00:48:33;4.50;1.00
34135;DHT22;20410;55.578;12.968;2023-11-21T00:50:59;4.40;1.00
34135;DHT22;20410;55.578;12.968;2023-11-21T00:53:24;4.50;1.00
34135;DHT22;20410;55.578;12.968;2023-11-21T00:55:50;4.40;1.00
34135;DHT22;20410;55.578;12.968;2023-11-21T00:58:17;4.40;1.00
34135;DHT22;20410;55.578;12.968;2023-11-21T01:00:43;4.30;1.00
34135;DHT22;20410;55.578;12.968;2023-11-21T01:03:09;4.40;1.00
34135;DHT22;20410;55.578;12.968;2023-11-21T01:05:34;4.30;1.00
34135;DHT22;20410;55.578;12.968;2023-11-21T01:08:00;4.30;1.00
34135;DHT22;20410;55.578;12.968;2023-11-21T01:10:25;4.30;1.00
34135;DHT22;20410;55.578;12.968;2023-11-21T01:12:51;4.30;1.00
34135;DHT22;20410;55.578;12.968;2023-11-21T01:15:16;4.20;1.00
34135;DHT22;20410;55.578;12.968;2023-11-21T01:17:42;4.20;1.00
34135;DHT22;20410;55.578;12.968;2023-11-21T01:20:08;4.20;1.00
34135;DHT22;20410;55.578;12.968;2023-11-21T01:22:38;4.20;1.00
34135;DHT22;20410;55.578;12.968;2023-11-21T01:25:04;4.10;1.00
34135;DHT22;20410;55.578;12.968;2023-11-21T01:27:33;4.10;1.00
34135;DHT22;20410;55.578;12.968;2023-11-21T01:29:59;4.10;1.00
34135;DHT22;20410;55.578;12.968;2023-11-21T01:32:25;4.10;1.00
34135;DHT22;20410;55.578;12.968;2023-11-21T01:34:51;4.00;1.00
34135;DHT22;20410;55.578;12.968;2023-11-21T01:37:16;4.10;1.00
34135;DHT22;20410;55.578;12.968;2023-11-21T01:39:43;4.10;1.00
34135;DHT22;20410;55.578;12.968;2023-11-21T01:42:09;4.00;1.00
34135;DHT22;20410;55.578;12.968;2023-11-21T01:44:35;4.10;1.00
34135;DHT22;20410;55.578;12.968;2023-11-21T01:47:01;4.10;1.00
34135;DHT22;20410;55.578;12.968;2023-11-21T01:49:32;4.10;1.00
34135;DHT22;20410;55.578;12.968;2023-11-21T01:51:59;4.10;1.00
34135;DHT22;20410;55.578;12.968;2023-11-21T01:54:25;4.10;1.00
34135;DHT22;20410;55.578;12.968;2023-11-21T01:56:51;4.10;1.00
34135;DHT22;20410;55.578;12.968;2023-11-21T01:59:20;4.20;1.00
34135;DHT22;20410;55.578;12.968;2023-11-21T02:01:49;4.10;1.00
34135;DHT22;20410;55.578;12.968;2023-11-21T02:04:15;4.10;1.00
34135;DHT22;20410;55.578;12.968;2023-11-21T02:06:41;4.10;1.00
34135;DHT22;20410;55.578;12.968;2023-11-21T02:09:07;4.10;1.00
34135;DHT22;20410;55.578;12.968;2023-11-21T02:11:34;4.20;1.00
34135;DHT22;20410;55.578;12.968;2023-11-21T02:14:00;4.30;1.00
34135;DHT22;20410;55.578;12.968;2023-11-21T02:16:26;4.30;1.00
34135;DHT22;20410;55.578;12.968;2023-11-21T02:18:52;4.30;1.00
34135;DHT22;20410;55.578;12.968;2023-11-21T02:21:18;4.30;1.00
34135;DHT22;20410;55.578;12.968;2023-11-21T02:23:47;4.40;1.00
34135;DHT22;20410;55.578;12.968;2023-11-21T02:26:13;4.40;1.00
34135;DHT22;20410;55.578;12.968;2023-11-21T02:28:39;4.40;1.00
34135;DHT22;20410;55.578;12.968;2023-11-21T02:31:05;4.40;1.00
34135;DHT22;20410;55.578;12.968;2023-11-21T02:33:33;4.40;1.00
34135;DHT22;20410;55.578;12.968;2023-11-21T02:36:00;4.50;1.00
34135;DHT22;20410;55.578;12.968;2023-11-21T02:38:25;4.50;1.00
34135;DHT22;20410;55.578;12.968;2023-11-21T02:40:51;4.50;1.00
34135;DHT22;20410;55.578;12.968;2023-11-21T02:43:17;4.50;1.00
34135;DHT22;20410;55.578;12.968;2023-11-21T02:45:42;4.50;1.00
34135;DHT22;20410;55.578;12.968;2023-11-21T02:48:08;4.40;1.00
34135;DHT22;20410;55.578;12.968;2023-11-21T02:50:33;4.40;1.00
34135;DHT22;20410;55.578;12.968;2023-11-21T02:53:00;4.50;1.00
34135;DHT22;20410;55.578;12.968;2023-11-21T02:55:27;4.50;1.00
34135;DHT22;20410;55.578;12.968;2023-11-21T02:57:53;4.50;1.00
34135;DHT22;20410;55.578;12.968;2023-11-21T03:00:19;4.50;1.00
34135;DHT22;20410;55.578;12.968;2023-11-21T03:02:45;4.50;1.00
34135;DHT22;20410;55.578;12.968;2023-11-21T03:05:13;4.60;1.00
34135;DHT22;20410;55.578;12.968;2023-11-21T03:07:39;4.50;1.00
34135;DHT22;20410;55.578;12.968;2023-11-21T03:10:08;4.60;1.00
34135;DHT22;20410;55.578;12.968;2023-11-21T03:12:37;4.60;1.00
34135;DHT22;20410;55.578;12.968;2023-11-21T03:15:05;4.50;1.00
34135;DHT22;20410;55.578;12.968;2023-11-21T03:17:31;4.50;1.00
34135;DHT22;20410;55.578;12.968;2023-11-21T03:19:56;4.50;1.00
34135;DHT22;20410;55.578;12.968;2023-11-21T03:22:22;4.60;1.00
34135;DHT22;20410;55.578;12.968;2023-11-21T03:24:48;4.50;1.00
34135;DHT22;20410;55.578;12.968;2023-11-21T03:27:14;4.50;1.00
34135;DHT22;20410;55.578;12.968;2023-11-21T03:29:40;4.60;1.00
34135;DHT22;20410;55.578;12.968;2023-11-21T03:32:05;4.60;1.00
34135;DHT22;20410;55.578;12.968;2023-11-21T03:34:32;4.60;1.00
34135;DHT22;20410;55.578;12.968;2023-11-21T03:36:58;4.60;1.00
34135;DHT22;20410;55.578;12.968;2023-11-21T03:39:24;4.70;1.00
34135;DHT22;20410;55.578;12.968;2023-11-21T03:41:51;4.60;1.00
34135;DHT22;20410;55.578;12.968;2023-11-21T03:44:17;4.60;1.00
34135;DHT22;20410;55.578;12.968;2023-11-21T03:46:43;4.50;1.00
34135;DHT22;20410;55.578;12.968;2023-11-21T03:49:09;4.60;1.00
34135;DHT22;20410;55.578;12.968;2023-11-21T03:51:36;4.60;1.00
34135;DHT22;20410;55.578;12.968;2023-11-21T03:54:02;4.60;1.00
34135;DHT22;20410;55.578;12.968;2023-11-21T03:56:28;4.70;1.00
34135;DHT22;20410;55.578;12.968;2023-11-21T03:58:54;4.70;1.00
34135;DHT22;20410;55.578;12.968;2023-11-21T04:01:23;4.70;1.00
34135;DHT22;20410;55.578;12.968;2023-11-21T04:03:50;4.80;1.00
34135;DHT22;20410;55.578;12.968;2023-11-21T04:06:17;4.80;1.00
34135;DHT22;20410;55.578;12.968;2023-11-21T04:08:45;4.70;1.00
34135;DHT22;20410;55.578;12.968;2023-11-21T04:11:12;4.70;1.00
34135;DHT22;20410;55.578;12.968;2023-11-21T04:13:40;4.70;1.00
34135;DHT22;20410;55.578;12.968;2023-11-21T04:16:08;4.60;1.00
34135;DHT22;20410;55.578;12.968;2023-11-21T04:18:36;4.60;1.00
34135;DHT22;20410;55.578;12.968;2023-11-21T04:21:01;4.60;1.00
34135;DHT22;20410;55.578;12.968;2023-11-21T04:23:28;4.60;1.00
34135;DHT22;20410;55.578;12.968;2023-11-21T04:25:54;4.50;1.00
34135;DHT22;20410;55.578;12.968;2023-11-21T04:28:23;4.50;1.00
34135;DHT22;20410;55.578;12.968;2023-11-21T04:30:48;4.50;1.00
34135;DHT22;20410;55.578;12.968;2023-11-21T04:33:14;4.50;1.00
34135;DHT22;20410;55.578;12.968;2023-11-21T04:35:39;4.60;1.00
34135;DHT22;20410;55.578;12.968;2023-11-21T04:38:05;4.60;1.00
34135;DHT22;20410;55.578;12.968;2023-11-21T04:40:31;4.70;1.00
34135;DHT22;20410;55.578;12.968;2023-11-21T04:42:56;4.70;1.00
34135;DHT22;20410;55.578;12.968;2023-11-21T04:45:22;4.60;1.00
34135;DHT22;20410;55.578;12.968;2023-11-21T04:47:48;4.60;1.00
34135;DHT22;20410;55.578;12.968;2023-11-21T04:50:14;4.70;1.00
34135;DHT22;20410;55.578;12.968;2023-11-21T04:52:40;4.70;1.00
34135;DHT22;20410;55.578;12.968;2023-11-21T04:55:05;4.70;1.00
34135;DHT22;20410;55.578;12.968;2023-11-21T04:57:35;4.70;1.00
34135;DHT22;20410;55.578;12.968;2023-11-21T05:00:01;4.70;1.00
34135;DHT22;20410;55.578;12.968;2023-11-21T05:02:31;4.70;1.00
34135;DHT22;20410;55.578;12.968;2023-11-21T05:04:57;4.70;1.00
34135;DHT22;20410;55.578;12.968;2023-11-21T05:07:22;4.70;1.00
34135;DHT22;20410;55.578;12.968;2023-11-21T05:09:48;4.70;1.00
34135;DHT22;20410;55.578;12.968;2023-11-21T05:12:13;4.70;1.00
34135;DHT22;20410;55.578;12.968;2023-11-21T05:14:40;4.70;1.00
34135;DHT22;20410;55.578;12.968;2023-11-21T05:17:05;4.70;1.00
34135;DHT22;20410;55.578;12.968;2023-11-21T05:19:31;4.70;1.00
34135;DHT22;20410;55.578;12.968;2023-11-21T05:21:58;4.70;1.00
34135;DHT22;20410;55.578;12.968;2023-11-21T05:24:26;4.70;1.00
34135;DHT22;20410;55.578;12.968;2023-11-21T05:26:51;4.70;1.00
34135;DHT22;20410;55.578;12.968;2023-11-21T05:29:17;4.80;1.00
34135;DHT22;20410;55.578;12.968;2023-11-21T05:31:42;4.70;1.00
34135;DHT22;20410;55.578;12.968;2023-11-21T05:34:08;4.70;1.00
34135;DHT22;20410;55.578;12.968;2023-11-21T05:36:33;4.80;1.00
34135;DHT22;20410;55.578;12.968;2023-11-21T05:38:59;4.80;1.00
34135;DHT22;20410;55.578;12.968;2023-11-21T05:41:24;4.80;1.00
34135;DHT22;20410;55.578;12.968;2023-11-21T05:43:51;4.80;1.00
34135;DHT22;20410;55.578;12.968;2023-11-21T05:46:16;4.80;1.00
34135;DHT22;20410;55.578;12.968;2023-11-21T05:48:42;4.80;1.00
34135;DHT22;20410;55.578;12.968;2023-11-21T05:51:07;4.80;1.00
34135;DHT22;20410;55.578;12.968;2023-11-21T05:53:34;4.90;1.00
34135;DHT22;20410;55.578;12.968;2023-11-21T05:55:59;4.90;1.00
34135;DHT22;20410;55.578;12.968;2023-11-21T05:58:25;4.90;1.00
34135;DHT22;20410;55.578;12.968;2023-11-21T06:00:51;4.90;1.00
34135;DHT22;20410;55.578;12.968;2023-11-21T06:03:16;4.80;1.00
34135;DHT22;20410;55.578;12.968;2023-11-21T06:05:43;4.80;1.00
34135;DHT22;20410;55.578;12.968;2023-11-21T06:08:09;4.80;1.00
34135;DHT22;20410;55.578;12.968;2023-11-21T06:10:34;4.80;1.00
34135;DHT22;20410;55.578;12.968;2023-11-21T06:13:00;4.90;1.00
34135;DHT22;20410;55.578;12.968;2023-11-21T06:15:25;4.80;1.00
34135;DHT22;20410;55.578;12.968;2023-11-21T06:17:51;4.90;1.00
34135;DHT22;20410;55.578;12.968;2023-11-21T06:20:20;4.90;1.00
34135;DHT22;20410;55.578;12.968;2023-11-21T06:22:48;4.90;1.00
34135;DHT22;20410;55.578;12.968;2023-11-21T06:25:15;4.90;1.00
34135;DHT22;20410;55.578;12.968;2023-11-21T06:27:45;5.00;1.00
34135;DHT22;20410;55.578;12.968;2023-11-21T06:30:12;5.00;1.00
34135;DHT22;20410;55.578;12.968;2023-11-21T06:32:39;4.90;1.00
34135;DHT22;20410;55.578;12.968;2023-11-21T06:35:06;4.90;1.00
34135;DHT22;20410;55.578;12.968;2023-11-21T06:37:32;4.90;1.00
34135;DHT22;20410;55.578;12.968;2023-11-21T06:39:59;4.80;1.00
34135;DHT22;20410;55.578;12.968;2023-11-21T06:42:25;4.90;1.00
34135;DHT22;20410;55.578;12.968;2023-11-21T06:44:51;4.90;1.00
34135;DHT22;20410;55.578;12.968;2023-11-21T06:47:17;4.90;1.00
34135;DHT22;20410;55.578;12.968;2023-11-21T06:49:45;4.90;1.00
34135;DHT22;20410;55.578;12.968;2023-11-21T06:52:13;4.90;1.00
34135;DHT22;20410;55.578;12.968;2023-11-21T06:54:38;5.00;1.00
34135;DHT22;20410;55.578;12.968;2023-11-21T06:57:04;5.00;1.00
34135;DHT22;20410;55.578;12.968;2023-11-21T06:59:30;5.00;1.00
34135;DHT22;20410;55.578;12.968;2023-11-21T07:01:55;5.00;1.00
34135;DHT22;20410;55.578;12.968;2023-11-21T07:04:21;5.00;1.00
34135;DHT22;20410;55.578;12.968;2023-11-21T07:06:47;5.00;1.00
34135;DHT22;20410;55.578;12.968;2023-11-21T07:09:12;4.90;1.00
34135;DHT22;20410;55.578;12.968;2023-11-21T07:11:38;4.90;1.00
34135;DHT22;20410;55.578;12.968;2023-11-21T07:14:04;4.80;1.00
34135;DHT22;20410;55.578;12.968;2023-11-21T07:16:36;4.80;1.00
34135;DHT22;20410;55.578;12.968;2023-11-21T07:19:06;4.90;1.00
34135;DHT22;20410;55.578;12.968;2023-11-21T07:21:33;4.80;1.00
34135;DHT22;20410;55.578;12.968;2023-11-21T07:24:00;4.90;1.00
34135;DHT22;20410;55.578;12.968;2023-11-21T07:26:27;4.80;1.00
34135;DHT22;20410;55.578;12.968;2023-11-21T07:28:53;4.80;1.00
34135;DHT22;20410;55.578;12.968;2023-11-21T07:31:18;4.70;1.00
34135;DHT22;20410;55.578;12.968;2023-11-21T07:33:47;4.70;1.00
34135;DHT22;20410;55.578;12.968;2023-11-21T07:36:14;4.70;1.00
34135;DHT22;20410;55.578;12.968;2023-11-21T07:38:40;4.70;1.00
34135;DHT22;20410;55.578;12.968;2023-11-21T07:41:06;4.70;1.00
34135;DHT22;20410;55.578;12.968;2023-11-21T07:43:34;4.70;1.00
34135;DHT22;20410;55.578;12.968;2023-11-21T07:46:04;4.70;1.00
34135;DHT22;20410;55.578;12.968;2023-11-21T07:48:30;4.60;1.00
34135;DHT22;20410;55.578;12.968;2023-11-21T07:50:57;4.60;1.00
34135;DHT22;20410;55.578;12.968;2023-11-21T07:53:24;4.60;1.00
34135;DHT22;20410;55.578;12.968;2023-11-21T07:55:53;4.60;1.00
34135;DHT22;20410;55.578;12.968;2023-11-21T07:58:19;4.60;1.00
34135;DHT22;20410;55.578;12.968;2023-11-21T08:00:44;4.50;1.00
34135;DHT22;20410;55.578;12.968;2023-11-21T08:03:10;4.50;1.00
34135;DHT22;20410;55.578;12.968;2023-11-21T08:05:36;4.50;1.00
34135;DHT22;20410;55.578;12.968;2023-11-21T08:08:02;4.50;1.00
34135;DHT22;20410;55.578;12.968;2023-11-21T08:10:28;4.50;1.00
34135;DHT22;20410;55.578;12.968;2023-11-21T08:12:53;4.50;1.00
34135;DHT22;20410;55.578;12.968;2023-11-21T08:15:19;4.50;1.00
34135;DHT22;20410;55.578;12.968;2023-11-21T08:17:46;4.50;1.00
34135;DHT22;20410;55.578;12.968;2023-11-21T08:20:11;4.50;1.00
34135;DHT22;20410;55.578;12.968;2023-11-21T08:22:37;4.40;1.00
34135;DHT22;20410;55.578;12.968;2023-11-21T08:25:06;4.50;1.00
34135;DHT22;20410;55.578;12.968;2023-11-21T08:27:33;4.50;1.00
34135;DHT22;20410;55.578;12.968;2023-11-21T08:30:00;4.60;1.00
34135;DHT22;20410;55.578;12.968;2023-11-21T08:32:26;4.50;1.00
34135;DHT22;20410;55.578;12.968;2023-11-21T08:34:51;4.40;1.00
34135;DHT22;20410;55.578;12.968;2023-11-21T08:37:17;4.40;1.00
34135;DHT22;20410;55.578;12.968;2023-11-21T08:39:47;4.40;1.00
34135;DHT22;20410;55.578;12.968;2023-11-21T08:42:13;4.40;1.00
34135;DHT22;20410;55.578;12.968;2023-11-21T08:44:40;4.40;1.00
34135;DHT22;20410;55.578;12.968;2023-11-21T08:47:06;4.50;1.00
34135;DHT22;20410;55.578;12.968;2023-11-21T08:49:31;4.40;1.00
34135;DHT22;20410;55.578;12.968;2023-11-21T08:51:58;4.30;1.00
34135;DHT22;20410;55.578;12.968;2023-11-21T08:54:25;4.30;1.00
34135;DHT22;20410;55.578;12.968;2023-11-21T08:56:52;4.30;1.00
34135;DHT22;20410;55.578;12.968;2023-11-21T08:59:18;4.50;1.00
34135;DHT22;20410;55.578;12.968;2023-11-21T09:01:45;4.50;1.00
34135;DHT22;20410;55.578;12.968;2023-11-21T09:04:12;4.50;1.00
34135;DHT22;20410;55.578;12.968;2023-11-21T09:06:38;4.50;1.00
34135;DHT22;20410;55.578;12.968;2023-11-21T09:09:05;4.50;1.00
34135;DHT22;20410;55.578;12.968;2023-11-21T09:11:32;4.60;1.00
34135;DHT22;20410;55.578;12.968;2023-11-21T09:13:59;4.70;1.00
34135;DHT22;20410;55.578;12.968;2023-11-21T09:16:25;4.80;1.00
34135;DHT22;20410;55.578;12.968;2023-11-21T09:18:51;4.90;1.00
34135;DHT22;20410;55.578;12.968;2023-11-21T09:21:16;5.10;1.00
34135;DHT22;20410;55.578;12.968;2023-11-21T09:23:44;5.10;1.00
34135;DHT22;20410;55.578;12.968;2023-11-21T09:26:10;5.00;1.00
34135;DHT22;20410;55.578;12.968;2023-11-21T09:28:35;5.00;1.00
34135;DHT22;20410;55.578;12.968;2023-11-21T09:31:04;5.10;1.00
34135;DHT22;20410;55.578;12.968;2023-11-21T09:33:30;5.20;1.00
34135;DHT22;20410;55.578;12.968;2023-11-21T09:35:57;5.30;1.00
34135;DHT22;20410;55.578;12.968;2023-11-21T09:38:23;5.20;1.00
34135;DHT22;20410;55.578;12.968;2023-11-21T09:40:49;5.40;1.00
34135;DHT22;20410;55.578;12.968;2023-11-21T09:43:19;5.20;1.00
34135;DHT22;20410;55.578;12.968;2023-11-21T09:45:46;5.30;1.00
34135;DHT22;20410;55.578;12.968;2023-11-21T09:48:13;5.30;1.00
34135;DHT22;20410;55.578;12.968;2023-11-21T09:50:41;5.10;1.00
34135;DHT22;20410;55.578;12.968;2023-11-21T09:53:13;5.00;1.00
34135;DHT22;20410;55.578;12.968;2023-11-21T09:55:46;4.90;1.00
34135;DHT22;20410;55.578;12.968;2023-11-21T09:58:13;4.80;1.00
34135;DHT22;20410;55.578;12.968;2023-11-21T10:00:44;4.80;1.00
34135;DHT22;20410;55.578;12.968;2023-11-21T10:03:10;4.70;1.00
34135;DHT22;20410;55.578;12.968;2023-11-21T10:05:37;4.60;1.00
34135;DHT22;20410;55.578;12.968;2023-11-21T10:08:12;4.70;1.00
34135;DHT22;20410;55.578;12.968;2023-11-21T10:10:45;4.70;1.00
34135;DHT22;20410;55.578;12.968;2023-11-21T10:13:12;4.70;1.00
34135;DHT22;20410;55.578;12.968;2023-11-21T10:15:38;4.80;1.00
34135;DHT22;20410;55.578;12.968;2023-11-21T10:18:04;4.70;1.00
34135;DHT22;20410;55.578;12.968;2023-11-21T10:20:33;4.70;1.00
34135;DHT22;20410;55.578;12.968;2023-11-21T10:23:03;4.70;1.00
34135;DHT22;20410;55.578;12.968;2023-11-21T10:25:30;4.70;1.00
34135;DHT22;20410;55.578;12.968;2023-11-21T10:27:59;4.60;1.00
34135;DHT22;20410;55.578;12.968;2023-11-21T10:30:36;4.60;1.00
34135;DHT22;20410;55.578;12.968;2023-11-21T10:33:06;4.60;1.00
34135;DHT22;20410;55.578;12.968;2023-11-21T10:35:59;4.60;1.00
34135;DHT22;20410;55.578;12.968;2023-11-21T10:38:26;4.70;1.00
34135;DHT22;20410;55.578;12.968;2023-11-21T10:40:53;4.70;1.00
34135;DHT22;20410;55.578;12.968;2023-11-21T10:43:24;4.60;1.00
34135;DHT22;20410;55.578;12.968;2023-11-21T10:45:50;4.60;1.00
34135;DHT22;20410;55.578;12.968;2023-11-21T10:48:16;4.60;1.00
34135;DHT22;20410;55.578;12.968;2023-11-21T10:50:45;4.70;1.00
34135;DHT22;20410;55.578;12.968;2023-11-21T10:53:11;4.80;1.00
34135;DHT22;20410;55.578;12.968;2023-11-21T10:55:38;4.70;1.00
34135;DHT22;20410;55.578;12.968;2023-11-21T10:58:04;4.70;1.00
34135;DHT22;20410;55.578;12.968;2023-11-21T11:00:32;4.70;1.00
34135;DHT22;20410;55.578;12.968;2023-11-21T11:02:58;4.70;1.00
34135;DHT22;20410;55.578;12.968;2023-11-21T11:05:25;4.70;1.00
34135;DHT22;20410;55.578;12.968;2023-11-21T11:07:59;4.80;1.00
34135;DHT22;20410;55.578;12.968;2023-11-21T11:10:30;4.80;1.00
34135;DHT22;20410;55.578;12.968;2023-11-21T11:12:57;4.90;1.00
34135;DHT22;20410;55.578;12.968;2023-11-21T11:15:24;4.90;1.00
34135;DHT22;20410;55.578;12.968;2023-11-21T11:17:49;4.80;1.00
34135;DHT22;20410;55.578;12.968;2023-11-21T11:20:17;4.80;1.00
34135;DHT22;20410;55.578;12.968;2023-11-21T11:28:31;4.80;1.00
34135;DHT22;20410;55.578;12.968;2023-11-21T11:31:14;4.80;1.00
34135;DHT22;20410;55.578;12.968;2023-11-21T11:33:57;4.80;1.00
34135;DHT22;20410;55.578;12.968;2023-11-21T11:36:36;4.80;1.00
34135;DHT22;20410;55.578;12.968;2023-11-21T11:39:03;4.80;1.00
34135;DHT22;20410;55.578;12.968;2023-11-21T11:41:31;4.80;1.00
34135;DHT22;20410;55.578;12.968;2023-11-21T11:44:01;4.80;1.00
34135;DHT22;20410;55.578;12.968;2023-11-21T11:46:47;4.70;1.00
34135;DHT22;20410;55.578;12.968;2023-11-21T11:49:27;4.60;1.00
34135;DHT22;20410;55.578;12.968;2023-11-21T11:54:56;4.60;1.00
34135;DHT22;20410;55.578;12.968;2023-11-21T11:57:26;4.60;1.00
34135;DHT22;20410;55.578;12.968;2023-11-21T12:02:44;4.40;1.00
34135;DHT22;20410;55.578;12.968;2023-11-21T12:05:12;4.40;1.00
34135;DHT22;20410;55.578;12.968;2023-11-21T12:07:52;4.50;1.00
34135;DHT22;20410;55.578;12.968;2023-11-21T12:10:26;4.40;1.00
34135;DHT22;20410;55.578;12.968;2023-11-21T12:12:55;4.40;1.00
34135;DHT22;20410;55.578;12.968;2023-11-21T12:15:22;4.40;1.00
34135;DHT22;20410;55.578;12.968;2023-11-21T12:17:49;4.40;1.00
34135;DHT22;20410;55.578;12.968;2023-11-21T12:20:18;4.40;1.00
34135;DHT22;20410;55.578;12.968;2023-11-21T12:25:09;4.50;1.00
34135;DHT22;20410;55.578;12.968;2023-11-21T12:27:34;4.50;1.00
34135;DHT22;20410;55.578;12.968;2023-11-21T12:30:00;4.50;1.00
34135;DHT22;20410;55.578;12.968;2023-11-21T12:32:26;4.50;1.00
34135;DHT22;20410;55.578;12.968;2023-11-21T12:34:52;4.50;1.00
34135;DHT22;20410;55.578;12.968;2023-11-21T12:37:18;4.60;1.00
34135;DHT22;20410;55.578;12.968;2023-11-21T12:39:43;4.50;1.00
34135;DHT22;20410;55.578;12.968;2023-11-21T12:42:09;4.60;1.00
34135;DHT22;20410;55.578;12.968;2023-11-21T12:44:35;4.60;1.00
34135;DHT22;20410;55.578;12.968;2023-11-21T12:47:03;4.70;1.00
34135;DHT22;20410;55.578;12.968;2023-11-21T12:49:28;4.80;1.00
34135;DHT22;20410;55.578;12.968;2023-11-21T12:51:54;4.80;1.00
34135;DHT22;20410;55.578;12.968;2023-11-21T12:54:20;4.80;1.00
34135;DHT22;20410;55.578;12.968;2023-11-21T12:56:46;4.80;1.00
34135;DHT22;20410;55.578;12.968;2023-11-21T12:59:14;4.70;1.00
34135;DHT22;20410;55.578;12.968;2023-11-21T13:01:42;4.70;1.00
34135;DHT22;20410;55.578;12.968;2023-11-21T13:04:08;4.80;1.00
34135;DHT22;20410;55.578;12.968;2023-11-21T13:06:36;4.80;1.00
34135;DHT22;20410;55.578;12.968;2023-11-21T13:09:07;4.80;1.00
34135;DHT22;20410;55.578;12.968;2023-11-21T13:11:36;4.80;1.00
34135;DHT22;20410;55.578;12.968;2023-11-21T13:14:02;4.90;1.00
34135;DHT22;20410;55.578;12.968;2023-11-21T13:16:29;5.00;1.00
34135;DHT22;20410;55.578;12.968;2023-11-21T13:18:55;5.00;1.00
34135;DHT22;20410;55.578;12.968;2023-11-21T13:21:21;5.00;1.00
34135;DHT22;20410;55.578;12.968;2023-11-21T13:23:47;5.00;1.00
34135;DHT22;20410;55.578;12.968;2023-11-21T13:26:15;5.00;1.00
34135;DHT22;20410;55.578;12.968;2023-11-21T13:28:41;4.90;1.00
34135;DHT22;20410;55.578;12.968;2023-11-21T13:31:11;4.90;1.00
34135;DHT22;20410;55.578;12.968;2023-11-21T13:33:56;5.00;1.00
34135;DHT22;20410;55.578;12.968;2023-11-21T13:36:25;4.90;1.00
34135;DHT22;20410;55.578;12.968;2023-11-21T13:38:51;4.90;1.00
34135;DHT22;20410;55.578;12.968;2023-11-21T13:41:20;4.90;1.00
34135;DHT22;20410;55.578;12.968;2023-11-21T13:43:53;5.00;1.00
34135;DHT22;20410;55.578;12.968;2023-11-21T13:46:24;5.00;1.00
34135;DHT22;20410;55.578;12.968;2023-11-21T13:48:50;5.10;1.00
34135;DHT22;20410;55.578;12.968;2023-11-21T13:51:20;5.00;1.00
34135;DHT22;20410;55.578;12.968;2023-11-21T13:53:55;5.00;1.00
34135;DHT22;20410;55.578;12.968;2023-11-21T13:56:20;4.90;1.00
34135;DHT22;20410;55.578;12.968;2023-11-21T13:58:50;4.90;1.00
34135;DHT22;20410;55.578;12.968;2023-11-21T14:01:17;5.00;1.00
34135;DHT22;20410;55.578;12.968;2023-11-21T14:03:59;5.00;1.00
34135;DHT22;20410;55.578;12.968;2023-11-21T14:06:35;4.90;1.00
34135;DHT22;20410;55.578;12.968;2023-11-21T14:09:09;5.00;1.00
34135;DHT22;20410;55.578;12.968;2023-11-21T14:11:34;4.90;1.00
34135;DHT22;20410;55.578;12.968;2023-11-21T14:14:03;4.90;1.00
34135;DHT22;20410;55.578;12.968;2023-11-21T14:16:28;4.80;1.00
34135;DHT22;20410;55.578;12.968;2023-11-21T14:18:54;4.80;1.00
34135;DHT22;20410;55.578;12.968;2023-11-21T14:21:29;4.80;1.00
34135;DHT22;20410;55.578;12.968;2023-11-21T14:23:54;4.80;1.00
34135;DHT22;20410;55.578;12.968;2023-11-21T14:26:20;4.70;1.00
34135;DHT22;20410;55.578;12.968;2023-11-21T14:28:46;4.80;1.00
34135;DHT22;20410;55.578;12.968;2023-11-21T14:31:14;4.80;1.00
34135;DHT22;20410;55.578;12.968;2023-11-21T14:33:43;4.80;1.00
34135;DHT22;20410;55.578;12.968;2023-11-21T14:36:09;4.70;1.00
34135;DHT22;20410;55.578;12.968;2023-11-21T14:38:36;4.70;1.00
34135;DHT22;20410;55.578;12.968;2023-11-21T14:41:02;4.70;1.00
34135;DHT22;20410;55.578;12.968;2023-11-21T14:43:29;4.80;1.00
34135;DHT22;20410;55.578;12.968;2023-11-21T14:45:59;4.70;1.00
34135;DHT22;20410;55.578;12.968;2023-11-21T14:48:25;4.70;1.00
34135;DHT22;20410;55.578;12.968;2023-11-21T14:51:09;4.70;1.00
34135;DHT22;20410;55.578;12.968;2023-11-21T14:53:38;4.60;1.00
34135;DHT22;20410;55.578;12.968;2023-11-21T14:56:22;4.60;1.00
34135;DHT22;20410;55.578;12.968;2023-11-21T14:58:57;4.60;1.00
34135;DHT22;20410;55.578;12.968;2023-11-21T15:01:25;4.60;1.00
34135;DHT22;20410;55.578;12.968;2023-11-21T15:04:09;4.50;1.00
34135;DHT22;20410;55.578;12.968;2023-11-21T15:06:52;4.50;1.00
34135;DHT22;20410;55.578;12.968;2023-11-21T15:09:19;4.50;1.00
34135;DHT22;20410;55.578;12.968;2023-11-21T15:12:00;4.50;1.00
34135;DHT22;20410;55.578;12.968;2023-11-21T15:14:43;4.40;1.00
34135;DHT22;20410;55.578;12.968;2023-11-21T15:17:11;4.50;1.00
34135;DHT22;20410;55.578;12.968;2023-11-21T15:19:40;4.50;1.00
34135;DHT22;20410;55.578;12.968;2023-11-21T15:22:07;4.50;1.00
34135;DHT22;20410;55.578;12.968;2023-11-21T15:24:33;4.50;1.00
34135;DHT22;20410;55.578;12.968;2023-11-21T15:26:58;4.50;1.00
34135;DHT22;20410;55.578;12.968;2023-11-21T15:29:25;4.50;1.00
34135;DHT22;20410;55.578;12.968;2023-11-21T15:31:51;4.50;1.00
34135;DHT22;20410;55.578;12.968;2023-11-21T15:34:21;4.40;1.00
34135;DHT22;20410;55.578;12.968;2023-11-21T15:36:47;4.40;1.00
34135;DHT22;20410;55.578;12.968;2023-11-21T15:39:16;4.40;1.00
34135;DHT22;20410;55.578;12.968;2023-11-21T15:41:42;4.30;1.00
34135;DHT22;20410;55.578;12.968;2023-11-21T15:44:07;4.20;1.00
34135;DHT22;20410;55.578;12.968;2023-11-21T15:46:36;4.30;1.00
34135;DHT22;20410;55.578;12.968;2023-11-21T15:49:03;4.20;1.00
34135;DHT22;20410;55.578;12.968;2023-11-21T15:51:42;4.10;1.00
34135;DHT22;20410;55.578;12.968;2023-11-21T15:54:10;4.10;1.00
34135;DHT22;20410;55.578;12.968;2023-11-21T15:56:36;4.10;1.00
34135;DHT22;20410;55.578;12.968;2023-11-21T15:59:03;4.10;1.00
34135;DHT22;20410;55.578;12.968;2023-11-21T16:01:29;4.00;1.00